Time;durP1;ratioP1;P1;durP2;ratioP2;P2;SDS_P1;SDS_P2;PMS_P1;PMS_P2;Temp;Humidity;BMP_temperature;BMP_pressure;BME280_temperature;BME280_humidity;BME280_pressure;Samples;Min_cycle;Max_cycle;Signal;HPM_P1;HPM_P2
2021/07/28 00:01:20;;;;;;;7.50;3.70;;;;;;;24.69;58.54;101394.45;1783962;80;21624;-79
2021/07/28 00:03:50;;;;;;;7.35;3.90;;;;;;;24.66;58.38;101386.83;1783814;80;21793;-78
2021/07/28 00:06:19;;;;;;;7.50;3.60;;;;;;;24.63;58.42;101389.84;1783624;80;20943;-78
2021/07/28 00:08:46;;;;;;;9.55;4.10;;;;;;;24.59;58.67;101385.38;1783695;80;20967;-77
2021/07/28 00:11:14;;;;;;;6.58;3.70;;;;;;;24.57;58.93;101378.60;1783871;79;21502;-78
2021/07/28 00:13:44;;;;;;;4.70;3.40;;;;;;;24.55;58.98;101381.41;1784065;79;20928;-78
2021/07/28 00:16:16;;;;;;;4.80;3.72;;;;;;;24.54;58.87;101382.90;1783972;80;21115;-76
2021/07/28 00:19:03;;;;;;;8.25;3.20;;;;;;;24.52;58.78;101382.26;1784032;80;20963;-76
2021/07/28 00:24:06;;;;;;;6.53;3.52;;;;;;;24.51;59.10;101380.59;1784015;79;20901;-78
2021/07/28 00:26:34;;;;;;;6.45;3.90;;;;;;;24.51;58.81;101388.55;1770754;80;36225;-77
2021/07/28 00:29:01;;;;;;;8.63;3.72;;;;;;;24.49;58.93;101386.09;1783845;80;21136;-78
2021/07/28 00:31:28;;;;;;;9.25;4.42;;;;;;;24.49;59.17;101381.28;1783914;80;20963;-78
2021/07/28 00:33:55;;;;;;;8.78;3.60;;;;;;;24.47;59.33;101385.95;1783869;80;21006;-77
2021/07/28 00:36:22;;;;;;;6.25;3.77;;;;;;;24.45;59.75;101382.63;1783792;79;20900;-79
2021/07/28 00:38:49;;;;;;;5.03;3.60;;;;;;;24.42;59.63;101392.26;1783957;80;21035;-77
2021/07/28 00:41:16;;;;;;;5.78;3.47;;;;;;;24.40;59.76;101399.08;1784241;80;21083;-79
2021/07/28 00:43:43;;;;;;;10.20;3.95;;;;;;;24.38;59.83;101398.93;1804662;79;20903;-79
2021/07/28 00:46:09;;;;;;;6.25;4.00;;;;;;;24.36;59.82;101391.62;1809820;79;21514;-79
2021/07/28 00:48:36;;;;;;;5.97;3.52;;;;;;;24.34;59.89;101393.14;1783831;79;21569;-80
2021/07/28 00:51:06;;;;;;;9.55;3.70;;;;;;;24.34;60.05;101392.31;1784212;80;20991;-80
2021/07/28 00:53:34;;;;;;;8.60;4.00;;;;;;;24.33;60.30;101390.15;1783941;79;21988;-78
2021/07/28 00:56:01;;;;;;;4.22;3.67;;;;;;;24.32;60.25;101387.16;1783945;80;20868;-77
2021/07/28 00:58:30;;;;;;;7.85;3.30;;;;;;;24.31;60.24;101384.70;1784050;80;20951;-77
2021/07/28 01:00:57;;;;;;;5.50;3.70;;;;;;;24.29;60.19;101386.18;1783838;80;20968;-77
2021/07/28 01:03:24;;;;;;;4.78;3.55;;;;;;;24.29;60.17;101384.86;1784105;79;20944;-77
2021/07/28 01:05:51;;;;;;;6.83;3.87;;;;;;;24.28;60.22;101380.57;1784025;80;21132;-76
2021/07/28 01:08:18;;;;;;;5.37;3.75;;;;;;;24.28;59.75;101387.20;1783913;80;21002;-77
2021/07/28 01:10:46;;;;;;;6.67;3.17;;;;;;;24.28;59.16;101381.06;1796661;79;21046;-75
2021/07/28 01:13:16;;;;;;;5.62;3.58;;;;;;;24.30;58.38;101378.56;1783950;80;21482;-78
2021/07/28 01:15:43;;;;;;;6.92;3.62;;;;;;;24.32;57.82;101372.57;1783970;80;20907;-76
2021/07/28 01:18:14;;;;;;;10.70;3.40;;;;;;;24.35;57.47;101371.39;1783962;80;21135;-81
2021/07/28 01:20:44;;;;;;;7.30;3.53;;;;;;;24.37;57.19;101363.61;1784075;80;20903;-78
2021/07/28 01:23:21;;;;;;;7.05;3.22;;;;;;;24.39;56.76;101360.77;1783837;79;21036;-76
2021/07/28 01:25:50;;;;;;;6.62;3.15;;;;;;;24.40;56.40;101359.28;1784013;80;20940;-75
2021/07/28 01:28:18;;;;;;;7.53;3.20;;;;;;;24.42;56.00;101357.77;1783986;80;20935;-76
2021/07/28 01:30:45;;;;;;;5.33;3.47;;;;;;;24.44;55.86;101358.44;1784227;80;21112;-75
2021/07/28 01:33:12;;;;;;;7.12;3.27;;;;;;;24.44;55.72;101357.11;1783606;80;21005;-75
2021/07/28 01:35:39;;;;;;;3.77;3.20;;;;;;;24.47;55.50;101359.41;1783807;79;20913;-76
2021/07/28 01:38:06;;;;;;;5.67;3.35;;;;;;;24.48;55.42;101359.72;1783833;79;20944;-76
2021/07/28 01:40:40;;;;;;;5.42;3.08;;;;;;;24.49;55.31;101354.75;1797056;79;21445;-76
2021/07/28 01:43:14;;;;;;;3.42;3.10;;;;;;;24.48;55.30;101355.24;1792790;79;22088;-75
2021/07/28 01:45:41;;;;;;;6.80;3.45;;;;;;;24.49;55.30;101352.92;1783872;80;20876;-75
2021/07/28 01:48:09;;;;;;;6.20;3.30;;;;;;;24.48;55.36;101348.61;1783857;80;21522;-77
2021/07/28 01:50:36;;;;;;;12.35;3.40;;;;;;;24.48;55.39;101351.75;1783941;79;21016;-76
2021/07/28 01:53:04;;;;;;;9.98;3.58;;;;;;;24.47;55.35;101346.98;1783862;80;20960;-75
2021/07/28 01:55:32;;;;;;;8.50;3.20;;;;;;;24.49;55.35;101345.45;1784020;79;21138;-77
2021/07/28 01:57:59;;;;;;;6.70;3.22;;;;;;;24.47;55.40;101341.67;1783891;80;20966;-76
2021/07/28 02:00:26;;;;;;;7.55;3.45;;;;;;;24.46;55.45;101342.66;1783865;79;21462;-78
2021/07/28 02:02:54;;;;;;;7.03;3.50;;;;;;;24.46;55.49;101345.31;1783866;80;21004;-75
2021/07/28 02:05:20;;;;;;;8.90;3.52;;;;;;;24.44;55.30;101347.30;1783765;80;21423;-75
2021/07/28 02:07:48;;;;;;;4.90;3.35;;;;;;;24.44;55.15;101344.64;1784222;80;21993;-76
2021/07/28 02:10:14;;;;;;;10.10;3.40;;;;;;;24.44;54.81;101348.63;1784182;80;21070;-79
2021/07/28 02:12:41;;;;;;;8.85;4.20;;;;;;;24.43;55.02;101355.45;1784138;80;20845;-78
2021/07/28 02:15:09;;;;;;;5.65;3.17;;;;;;;24.43;55.23;101362.91;1784057;80;20967;-76
2021/07/28 02:17:36;;;;;;;6.55;3.58;;;;;;;24.42;55.18;101359.92;1784149;80;21505;-76
2021/07/28 02:20:05;;;;;;;6.65;3.05;;;;;;;24.42;54.83;101355.94;1783858;80;21149;-77
2021/07/28 02:22:32;;;;;;;4.03;3.47;;;;;;;24.42;54.78;101357.77;1784178;80;20840;-78
2021/07/28 02:25:00;;;;;;;10.82;3.58;;;;;;;24.41;55.14;101354.28;1784074;79;21419;-77
2021/07/28 02:27:27;;;;;;;7.65;3.15;;;;;;;24.39;55.42;101359.44;1770918;80;21387;-77
2021/07/28 02:29:54;;;;;;;3.70;3.02;;;;;;;24.38;55.63;101361.79;1784041;80;20927;-75
2021/07/28 02:32:22;;;;;;;6.37;3.33;;;;;;;24.36;55.09;101358.47;1784224;80;21204;-77
2021/07/28 02:34:49;;;;;;;10.15;3.72;;;;;;;24.36;54.88;101363.27;1784011;80;21548;-75
2021/07/28 02:37:16;;;;;;;6.67;3.72;;;;;;;24.35;55.18;101356.30;1783983;79;20951;-76
2021/07/28 02:39:42;;;;;;;6.65;3.72;;;;;;;24.35;55.43;101357.62;1783954;79;20952;-75
2021/07/28 02:42:09;;;;;;;5.33;3.10;;;;;;;24.31;55.29;101355.02;1783913;80;20872;-76
2021/07/28 02:44:36;;;;;;;7.83;3.40;;;;;;;24.30;54.77;101354.69;1808602;79;21136;-76
2021/07/28 02:47:03;;;;;;;4.62;2.75;;;;;;;24.31;54.29;101352.86;1793324;79;20913;-78
2021/07/28 02:49:30;;;;;;;3.83;3.05;;;;;;;24.32;54.26;101354.00;1784010;79;20958;-76
2021/07/28 02:51:58;;;;;;;4.85;3.30;;;;;;;24.35;53.61;101354.14;1784031;80;20975;-78
2021/07/28 02:54:24;;;;;;;6.33;3.62;;;;;;;24.36;53.79;101354.48;1784224;80;20978;-76
2021/07/28 02:56:52;;;;;;;6.08;3.30;;;;;;;24.36;53.56;101357.14;1784282;80;21131;-77
2021/07/28 02:59:20;;;;;;;6.25;3.70;;;;;;;24.37;53.52;101353.00;1771203;80;20995;-77
2021/07/28 03:01:49;;;;;;;7.03;3.27;;;;;;;24.37;53.96;101358.80;1784170;80;20940;-78
2021/07/28 03:04:17;;;;;;;9.65;3.35;;;;;;;24.37;53.94;101356.14;1783909;79;21086;-79
2021/07/28 03:06:43;;;;;;;6.05;3.02;;;;;;;24.35;54.31;101360.78;1784122;80;20928;-78
2021/07/28 03:09:11;;;;;;;4.60;3.60;;;;;;;24.34;54.68;101362.63;1784289;80;21132;-78
2021/07/28 03:11:40;;;;;;;8.48;3.80;;;;;;;24.34;55.00;101358.66;1784073;80;21490;-79
2021/07/28 03:14:06;;;;;;;19.73;4.62;;;;;;;24.34;55.32;101356.00;1784162;80;20940;-79
2021/07/28 03:16:33;;;;;;;11.28;4.15;;;;;;;24.35;55.48;101356.80;1784096;80;20978;-78
2021/07/28 03:19:00;;;;;;;7.20;4.08;;;;;;;24.34;55.57;101352.02;1784157;80;21047;-78
2021/07/28 03:21:27;;;;;;;11.15;3.70;;;;;;;24.34;55.59;101352.52;1784247;80;21136;-78
2021/07/28 03:23:54;;;;;;;5.10;3.70;;;;;;;24.34;55.66;101345.88;1784039;80;21041;-78
2021/07/28 03:26:21;;;;;;;5.47;3.52;;;;;;;24.33;55.22;101353.01;1783937;80;21573;-77
2021/07/28 03:28:47;;;;;;;5.35;3.20;;;;;;;24.33;54.97;101346.88;1783825;79;20927;-77
2021/07/28 03:31:14;;;;;;;8.68;3.55;;;;;;;24.34;54.86;101349.86;1783993;80;21038;-78
2021/07/28 03:33:42;;;;;;;6.75;3.55;;;;;;;24.34;54.74;101346.72;1784127;80;21138;-78
2021/07/28 03:36:09;;;;;;;9.65;3.90;;;;;;;24.36;54.69;101349.17;1783999;79;21038;-78
2021/07/28 03:38:36;;;;;;;16.27;3.52;;;;;;;24.36;54.60;101356.64;1784461;80;20916;-75
2021/07/28 03:41:03;;;;;;;9.93;3.37;;;;;;;24.38;54.47;101357.81;1784024;80;21015;-76
2021/07/28 03:43:30;;;;;;;7.47;3.30;;;;;;;24.38;54.56;101359.94;1791057;79;20967;-76
2021/07/28 03:45:56;;;;;;;4.80;3.40;;;;;;;24.40;54.35;101358.45;1817092;79;21133;-75
2021/07/28 03:48:25;;;;;;;5.33;3.33;;;;;;;24.41;54.47;101354.28;1814978;79;20895;-76
2021/07/28 03:50:52;;;;;;;5.92;3.22;;;;;;;24.41;54.56;101354.81;1817440;79;21006;-75
2021/07/28 03:53:20;;;;;;;6.72;3.12;;;;;;;24.42;54.54;101350.63;1814703;79;20967;-76
2021/07/28 03:55:46;;;;;;;7.22;3.20;;;;;;;24.44;54.44;101358.44;1817497;79;20954;-76
2021/07/28 03:58:13;;;;;;;5.50;3.42;;;;;;;24.45;54.06;101354.27;1823466;78;21176;-75
2021/07/28 04:00:40;;;;;;;7.17;3.15;;;;;;;24.48;53.87;101353.08;1820060;78;20839;-76
2021/07/28 04:03:07;;;;;;;9.50;3.80;;;;;;;24.51;53.80;101355.39;1820090;78;20939;-75
2021/07/28 04:05:34;;;;;;;7.70;3.80;;;;;;;24.52;53.62;101349.92;1820027;78;20993;-77
2021/07/28 04:08:02;;;;;;;8.40;3.65;;;;;;;24.55;53.08;101352.22;1821199;78;20927;-76
2021/07/28 04:10:30;;;;;;;7.47;3.25;;;;;;;24.59;52.86;101341.59;1824068;77;21137;-78
2021/07/28 04:12:57;;;;;;;5.37;3.33;;;;;;;24.63;52.61;101348.70;1824305;77;20951;-78
2021/07/28 04:15:24;;;;;;;8.35;3.25;;;;;;;24.68;52.52;101349.82;1824388;77;20863;-76
2021/07/28 04:17:51;;;;;;;11.65;3.42;;;;;;;24.69;52.34;101343.52;1823026;78;20987;-77
2021/07/28 04:20:18;;;;;;;5.95;2.70;;;;;;;24.73;52.23;101342.14;1821412;78;20942;-77
2021/07/28 04:22:45;;;;;;;6.33;3.42;;;;;;;24.76;51.98;101343.11;1820543;78;21783;-76
2021/07/28 04:25:13;;;;;;;6.60;5.35;;;;;;;24.81;51.84;101339.11;1820392;78;20899;-76
2021/07/28 04:27:41;;;;;;;11.08;3.60;;;;;;;24.85;51.47;101336.47;1820227;78;20935;-77
2021/07/28 04:30:10;;;;;;;4.78;3.02;;;;;;;24.88;51.27;101334.28;1820165;78;21497;-78
2021/07/28 04:32:37;;;;;;;3.95;2.85;;;;;;;24.95;50.86;101335.73;1784204;80;21467;-77
2021/07/28 04:35:06;;;;;;;6.95;3.72;;;;;;;25.01;50.75;101331.03;1784114;79;21558;-76
2021/07/28 04:37:33;;;;;;;7.17;3.12;;;;;;;25.05;51.09;101330.47;1784370;80;21013;-76
2021/07/28 04:40:01;;;;;;;8.80;3.22;;;;;;;25.09;51.18;101328.29;1784967;80;20971;-76
2021/07/28 04:42:29;;;;;;;4.97;2.90;;;;;;;25.11;51.37;101328.42;1785376;80;20939;-78
2021/07/28 04:44:56;;;;;;;5.25;3.05;;;;;;;25.15;51.01;101325.74;1805262;79;21049;-74
2021/07/28 04:47:23;;;;;;;4.08;2.80;;;;;;;25.20;50.55;101326.05;1797552;79;21124;-75
2021/07/28 04:49:50;;;;;;;8.75;3.45;;;;;;;25.25;50.20;101317.02;1783797;79;20991;-75
2021/07/28 04:52:23;;;;;;;4.17;2.70;;;;;;;25.31;50.00;101312.81;1783762;80;20987;-75
2021/07/28 04:54:47;;;;;;;7.67;3.08;;;;;;;25.36;49.99;101318.42;1783720;79;20892;-76
2021/07/28 04:57:14;;;;;;;4.65;3.20;;;;;;;25.39;50.21;101319.39;1784051;80;21041;-74
2021/07/28 04:59:40;;;;;;;8.08;3.40;;;;;;;25.43;49.85;101317.20;1783797;80;21124;-76
2021/07/28 05:02:07;;;;;;;6.67;3.35;;;;;;;25.48;49.96;101317.46;1783730;79;20959;-77
2021/07/28 05:04:34;;;;;;;6.42;3.33;;;;;;;25.52;49.06;101314.30;1784082;80;20880;-77
2021/07/28 05:07:01;;;;;;;15.50;3.52;;;;;;;25.57;48.88;101317.22;1783920;79;20928;-75
2021/07/28 05:09:28;;;;;;;5.80;3.35;;;;;;;25.61;48.98;101311.87;1784171;80;20969;-76
2021/07/28 05:11:57;;;;;;;6.10;3.27;;;;;;;25.64;49.05;101316.82;1783875;80;21951;-74
2021/07/28 05:14:24;;;;;;;7.20;3.47;;;;;;;25.70;49.05;101311.27;1784089;80;20880;-85
2021/07/28 05:16:51;;;;;;;7.30;3.58;;;;;;;25.75;48.50;101311.56;1784195;80;20888;-79
2021/07/28 05:19:18;;;;;;;4.45;3.10;;;;;;;25.81;48.63;101316.63;1784016;79;20967;-75
2021/07/28 05:21:45;;;;;;;11.97;3.72;;;;;;;25.84;48.70;101311.77;1796981;79;21038;-79
2021/07/28 05:24:13;;;;;;;6.50;3.80;;;;;;;25.87;49.12;101315.89;1783948;80;21450;-76
2021/07/28 05:26:40;;;;;;;9.28;3.67;;;;;;;25.89;49.36;101310.70;1783992;80;20960;-80
2021/07/28 05:29:09;;;;;;;7.72;4.03;;;;;;;25.94;49.78;101307.50;1784051;80;20967;-78
2021/07/28 05:31:37;;;;;;;7.05;3.08;;;;;;;25.98;49.73;101306.93;1784267;79;21489;-83
2021/07/28 05:34:04;;;;;;;7.33;3.42;;;;;;;26.05;49.50;101308.34;1784385;80;20986;-76
2021/07/28 05:36:33;;;;;;;4.50;2.98;;;;;;;26.12;49.46;101311.91;1784455;80;21145;-76
2021/07/28 05:39:00;;;;;;;6.60;3.30;;;;;;;26.17;49.70;101312.20;1783981;80;20900;-75
2021/07/28 05:41:27;;;;;;;4.10;3.30;;;;;;;26.24;49.61;101308.61;1783962;79;20950;-79
2021/07/28 05:43:54;;;;;;;9.08;3.92;;;;;;;26.29;49.50;101314.72;1788041;79;21208;-76
2021/07/28 05:46:21;;;;;;;5.50;3.55;;;;;;;26.33;49.24;101311.14;1789084;79;21003;-77
2021/07/28 05:48:47;;;;;;;11.68;3.62;;;;;;;26.38;48.74;101314.09;1784276;80;21137;-76
2021/07/28 05:51:15;;;;;;;8.88;3.37;;;;;;;26.41;49.05;101309.21;1784148;79;21727;-76
2021/07/28 05:53:42;;;;;;;6.15;3.72;;;;;;;26.47;49.20;101312.45;1784226;80;20907;-76
2021/07/28 05:56:09;;;;;;;6.78;3.27;;;;;;;26.54;48.85;101312.02;1783933;79;20880;-76
2021/07/28 05:58:36;;;;;;;7.92;3.20;;;;;;;26.59;48.80;101312.26;1784115;79;20960;-76
2021/07/28 06:01:03;;;;;;;7.33;3.67;;;;;;;26.65;48.50;101312.83;1784034;79;21088;-78
2021/07/28 06:03:30;;;;;;;7.17;3.42;;;;;;;26.71;49.03;101300.58;1762368;79;20950;-76
2021/07/28 06:05:58;;;;;;;8.15;3.65;;;;;;;26.77;49.21;101302.52;1771861;80;21559;-77
2021/07/28 06:08:25;;;;;;;6.70;3.52;;;;;;;26.87;49.08;101300.89;1782297;79;22222;-75
2021/07/28 06:10:52;;;;;;;7.75;3.98;;;;;;;26.95;49.03;101300.23;1782221;79;21108;-77
2021/07/28 06:13:21;;;;;;;8.60;3.42;;;;;;;27.03;48.33;101293.92;1782304;80;21116;-76
2021/07/28 06:15:50;;;;;;;5.15;3.58;;;;;;;27.13;48.05;101299.24;1782503;80;20987;-80
2021/07/28 06:18:17;;;;;;;8.60;3.98;;;;;;;27.21;46.70;101295.12;1795466;79;22409;-78
2021/07/28 06:20:44;;;;;;;7.17;3.80;;;;;;;27.31;47.70;101292.11;1782434;79;21038;-77
2021/07/28 06:23:10;;;;;;;5.55;3.65;;;;;;;27.39;47.51;101294.61;1782679;80;21117;-76
2021/07/28 06:25:38;;;;;;;5.12;3.67;;;;;;;27.48;47.46;101296.62;1782265;79;21301;-77
2021/07/28 06:28:05;;;;;;;8.13;3.90;;;;;;;27.54;46.91;101295.34;1782509;80;21592;-81
2021/07/28 06:30:32;;;;;;;4.47;3.37;;;;;;;27.63;46.50;101298.16;1782558;80;20956;-75
2021/07/28 06:32:59;;;;;;;6.50;3.80;;;;;;;27.72;47.06;101301.50;1782323;80;20954;-78
2021/07/28 06:35:29;;;;;;;7.53;3.60;;;;;;;27.79;46.23;101301.03;1782544;80;21085;-75
2021/07/28 06:37:58;;;;;;;9.03;3.77;;;;;;;27.86;46.51;101303.19;1783161;80;21005;-79
2021/07/28 06:40:25;;;;;;;11.53;4.35;;;;;;;27.94;46.58;101304.88;1782394;80;20982;-76
2021/07/28 06:42:52;;;;;;;6.50;3.42;;;;;;;28.03;46.60;101301.02;1782495;80;22049;-75
2021/07/28 06:45:19;;;;;;;11.22;3.90;;;;;;;28.10;45.90;101303.23;1782678;79;21037;-76
2021/07/28 06:47:46;;;;;;;9.18;4.35;;;;;;;28.20;45.46;101313.02;1777376;80;21533;-77
2021/07/28 06:50:13;;;;;;;6.75;4.03;;;;;;;28.28;45.47;101307.48;1770609;79;21121;-78
2021/07/28 06:52:45;;;;;;;11.48;4.80;;;;;;;28.37;45.89;101308.95;1770886;79;20975;-86
2021/07/28 06:55:13;;;;;;;36.85;11.97;;;;;;;28.47;45.50;101308.05;1771032;81;21581;-76
2021/07/28 06:57:46;;;;;;;12.10;5.92;;;;;;;28.58;44.87;101310.65;1770900;79;21074;-75
2021/07/28 07:00:16;;;;;;;25.75;12.05;;;;;;;28.67;43.24;101316.13;1783386;79;21090;-76
2021/07/28 07:02:45;;;;;;;27.82;10.55;;;;;;;28.75;43.62;101309.28;1770654;80;21087;-79
2021/07/28 07:05:15;;;;;;;24.27;10.23;;;;;;;28.82;43.54;101311.42;1771304;79;20947;-79
2021/07/28 07:07:47;;;;;;;21.40;10.03;;;;;;;28.89;43.93;101310.41;1771599;79;20943;-81
2021/07/28 07:10:17;;;;;;;8.25;4.95;;;;;;;28.97;43.29;101311.23;1758424;81;21090;-78
2021/07/28 07:12:46;;;;;;;6.75;4.37;;;;;;;29.02;44.27;101309.58;1771080;79;21125;-81
2021/07/28 07:15:14;;;;;;;15.72;6.65;;;;;;;29.08;44.04;101311.94;1770955;79;21776;-78
2021/07/28 07:17:41;;;;;;;6.47;4.83;;;;;;;29.14;43.54;101317.28;1770971;81;21549;-73
2021/07/28 07:20:12;;;;;;;10.38;4.33;;;;;;;29.21;43.28;101315.42;1770817;79;21121;-77
2021/07/28 07:22:39;;;;;;;8.68;5.80;;;;;;;29.28;43.20;101316.28;1772361;79;21023;-77
2021/07/28 07:25:11;;;;;;;10.85;4.25;;;;;;;29.37;42.77;101316.88;1771235;81;21014;-75
2021/07/28 07:27:42;;;;;;;14.63;4.65;;;;;;;29.45;42.70;101313.17;1771259;81;21120;-77
2021/07/28 07:30:09;;;;;;;7.25;4.28;;;;;;;29.53;42.66;101306.25;1770937;79;20986;-81
2021/07/28 07:32:36;;;;;;;9.73;4.58;;;;;;;29.61;42.69;101313.52;1771242;81;21556;-73
2021/07/28 07:35:05;;;;;;;10.75;4.80;;;;;;;29.71;42.27;101317.09;1771677;81;20976;-74
2021/07/28 07:37:32;;;;;;;8.30;4.83;;;;;;;29.81;42.53;101315.63;1771330;81;21054;-76
2021/07/28 07:39:59;;;;;;;8.28;4.83;;;;;;;29.89;42.56;101316.78;1771693;81;21106;-81
2021/07/28 07:42:25;;;;;;;12.73;6.40;;;;;;;29.98;41.70;101314.67;1771842;81;20962;-74
2021/07/28 07:44:56;;;;;;;11.57;4.67;;;;;;;30.04;41.46;101321.03;1776168;79;21129;-78
2021/07/28 07:47:21;;;;;;;8.60;4.05;;;;;;;30.08;42.01;101319.58;1786358;79;21046;-76
2021/07/28 07:49:48;;;;;;;8.43;4.58;;;;;;;30.14;40.65;101322.23;1782728;80;21037;-76
2021/07/28 07:52:14;;;;;;;9.38;4.78;;;;;;;30.20;40.68;101314.67;1783060;80;21119;-75
2021/07/28 07:54:42;;;;;;;8.73;4.95;;;;;;;30.28;41.01;101314.95;1782473;80;21077;-74
2021/07/28 07:57:09;;;;;;;14.18;11.75;;;;;;;30.37;41.34;101320.36;1782684;79;21022;-75
2021/07/28 07:59:37;;;;;;;11.97;7.28;;;;;;;30.43;41.00;101318.19;1782235;80;20994;-75
2021/07/28 08:02:07;;;;;;;7.35;4.80;;;;;;;30.51;41.12;101313.90;1782666;79;21070;-75
2021/07/28 08:04:32;;;;;;;8.40;4.28;;;;;;;30.58;41.25;101324.57;1782387;77;21146;-75
2021/07/28 08:07:00;;;;;;;7.92;4.05;;;;;;;30.68;41.25;101324.92;1782560;79;21056;-77
2021/07/28 08:09:28;;;;;;;5.35;4.25;;;;;;;30.75;39.85;101323.02;1782471;80;21045;-71
2021/07/28 08:11:56;;;;;;;12.33;4.42;;;;;;;30.81;39.69;101323.48;1782092;80;21023;-74
2021/07/28 08:14:25;;;;;;;8.58;4.25;;;;;;;30.87;39.96;101323.95;1769147;80;21691;-74
2021/07/28 08:16:53;;;;;;;5.80;4.28;;;;;;;30.91;40.01;101331.35;1782354;79;20907;-76
2021/07/28 08:19:20;;;;;;;8.08;4.12;;;;;;;30.93;39.40;101327.09;1782038;80;20970;-74
2021/07/28 08:21:47;;;;;;;10.95;4.80;;;;;;;30.93;40.02;101324.42;1782363;80;20996;-73
2021/07/28 08:24:16;;;;;;;5.28;4.25;;;;;;;30.98;40.18;101326.48;1782378;80;21012;-75
2021/07/28 08:26:43;;;;;;;9.03;4.15;;;;;;;31.04;40.12;101328.29;1782322;79;21074;-79
2021/07/28 08:29:11;;;;;;;5.83;4.10;;;;;;;31.10;39.55;101328.23;1782506;79;21115;-78
2021/07/28 08:31:37;;;;;;;4.78;4.00;;;;;;;31.07;38.95;101317.95;1782325;80;21084;-76
2021/07/28 08:34:04;;;;;;;8.50;4.40;;;;;;;31.07;39.57;101315.27;1782501;79;20964;-75
2021/07/28 08:36:31;;;;;;;4.67;3.77;;;;;;;31.08;39.45;101319.57;1782373;80;21063;-78
2021/07/28 08:38:59;;;;;;;4.42;3.77;;;;;;;31.12;39.25;101323.98;1782750;79;21016;-74
2021/07/28 08:41:31;;;;;;;9.98;3.85;;;;;;;31.05;39.42;101320.02;1782564;80;21144;-75
2021/07/28 08:43:58;;;;;;;;;;;;;;;31.09;39.99;101321.22;1785150;79;21581;-74
2021/07/28 08:46:26;;;;;;;16.87;4.00;;;;;;;31.16;39.75;101317.97;1806451;79;20117;-75
2021/07/28 08:48:54;;;;;;;10.15;4.25;;;;;;;31.25;40.68;101320.66;1812472;79;21651;-74
2021/07/28 08:51:27;;;;;;;8.93;4.05;;;;;;;31.35;39.84;101315.62;1813128;79;21119;-74
2021/07/28 08:53:54;;;;;;;7.17;3.52;;;;;;;31.47;40.08;101312.49;1812916;79;21875;-74
2021/07/28 08:56:23;;;;;;;9.95;6.00;;;;;;;31.57;39.56;101313.35;1787865;79;21146;-76
2021/07/28 08:58:50;;;;;;;11.08;5.17;;;;;;;31.60;39.60;101310.73;1769474;80;21045;-75
2021/07/28 09:01:18;;;;;;;9.03;6.12;;;;;;;31.65;39.47;101305.54;1782536;79;20903;-79
2021/07/28 09:03:46;;;;;;;12.98;8.83;;;;;;;31.74;39.08;101298.82;1782402;79;21564;-85
2021/07/28 09:06:28;;;;;;;8.35;6.42;;;;;;;31.73;38.12;101302.02;1782259;80;21127;-76
2021/07/28 09:08:59;;;;;;;8.40;6.80;;;;;;;31.71;38.83;101302.78;1782652;80;20987;-76
2021/07/28 09:11:26;;;;;;;8.55;5.70;;;;;;;31.79;39.30;101306.48;1782739;80;21013;-75
2021/07/28 09:13:57;;;;;;;10.45;4.20;;;;;;;31.89;38.37;101301.41;1782405;80;21565;-74
2021/07/28 09:16:26;;;;;;;4.25;3.60;;;;;;;31.90;38.30;101301.72;1783070;79;21442;-79
2021/07/28 09:18:52;;;;;;;4.97;4.08;;;;;;;31.95;38.46;101295.14;1744238;80;21765;-75
2021/07/28 09:21:29;;;;;;;4.80;4.37;;;;;;;32.06;38.96;101294.94;1782038;80;21018;-74
2021/07/28 09:24:11;;;;;;;6.53;4.20;;;;;;;32.19;38.06;101299.30;1782941;80;21089;-79
2021/07/28 09:26:46;;;;;;;7.37;4.37;;;;;;;32.24;37.41;101290.85;1782686;79;20971;-80
2021/07/28 09:29:18;;;;;;;9.58;4.10;;;;;;;32.23;37.22;101291.89;1783379;80;21053;-80
2021/07/28 09:31:51;;;;;;;9.15;3.92;;;;;;;32.18;37.35;101288.26;1783312;80;21789;-73
2021/07/28 09:34:24;;;;;;;5.45;3.65;;;;;;;32.16;37.32;101284.99;1782674;80;21023;-82
2021/07/28 09:36:56;;;;;;;6.22;4.10;;;;;;;32.23;37.33;101277.12;1782862;80;21168;-77
2021/07/28 09:39:31;;;;;;;9.68;4.03;;;;;;;32.32;37.23;101277.64;1783136;80;20976;-75
2021/07/28 09:42:02;;;;;;;7.55;4.33;;;;;;;32.33;37.15;101277.91;1783085;79;21082;-73
2021/07/28 09:44:31;;;;;;;6.58;4.20;;;;;;;32.38;37.35;101282.09;1782629;79;21131;-82
2021/07/28 09:47:11;;;;;;;6.60;3.95;;;;;;;32.41;37.46;101282.45;1776523;79;21037;-77
2021/07/28 09:49:44;;;;;;;7.70;4.05;;;;;;;32.38;37.70;101273.51;1771937;81;20947;-82
2021/07/28 09:52:22;;;;;;;11.45;4.58;;;;;;;32.41;37.87;101279.77;1771069;81;21027;-74
2021/07/28 09:54:51;;;;;;;5.05;4.28;;;;;;;32.47;38.14;101275.33;1771452;81;21901;-75
2021/07/28 09:57:20;;;;;;;5.72;4.10;;;;;;;32.56;37.84;101270.44;1772012;79;21773;-84
2021/07/28 10:00:08;;;;;;;10.98;4.87;;;;;;;32.60;37.99;101271.13;1771266;79;20979;-75
2021/07/28 10:02:35;;;;;;;8.60;4.55;;;;;;;32.62;38.23;101269.53;1771800;79;21554;-82
2021/07/28 10:05:04;;;;;;;7.67;4.10;;;;;;;33.18;37.52;101264.99;1772064;79;20864;-74
2021/07/28 10:07:32;;;;;;;14.43;5.40;;;;;;;33.74;37.21;101265.13;1771537;79;21411;-74
2021/07/28 10:10:09;;;;;;;7.00;4.20;;;;;;;34.21;36.79;101261.73;1771195;81;21136;-77
2021/07/28 10:12:38;;;;;;;11.78;4.87;;;;;;;34.73;35.80;101259.69;1771222;79;20982;-75
2021/07/28 10:15:08;;;;;;;5.33;4.10;;;;;;;35.51;34.01;101255.97;1771506;81;21106;-79
2021/07/28 10:17:35;;;;;;;7.85;4.47;;;;;;;36.36;32.43;101252.59;1771175;79;21039;-76
2021/07/28 10:20:07;;;;;;;12.98;4.62;;;;;;;36.75;31.52;101251.84;1784069;79;21570;-74
2021/07/28 10:22:36;;;;;;;8.35;4.67;;;;;;;37.01;31.58;101253.67;1771661;79;22061;-72
2021/07/28 10:25:14;;;;;;;4.90;4.35;;;;;;;37.32;30.98;101248.69;1771093;81;21625;-75
2021/07/28 10:27:44;;;;;;;6.83;4.08;;;;;;;37.48;31.06;101246.35;1771677;79;21035;-83
2021/07/28 10:30:15;;;;;;;6.05;4.22;;;;;;;37.50;31.18;101242.83;1771985;79;20987;-80
2021/07/28 10:32:44;;;;;;;11.88;4.60;;;;;;;37.34;31.00;101242.99;1759274;81;20971;-82
2021/07/28 10:35:22;;;;;;;9.73;4.60;;;;;;;37.04;31.19;101242.33;1771479;81;21132;-74
2021/07/28 10:37:55;;;;;;;7.37;4.47;;;;;;;36.63;32.16;101243.93;1771196;81;21006;-73
2021/07/28 10:40:31;;;;;;;13.93;5.20;;;;;;;36.34;32.52;101245.28;1771601;81;21737;-81
2021/07/28 10:43:01;;;;;;;9.80;4.35;;;;;;;36.14;32.57;101243.20;1771387;79;20978;-74
2021/07/28 10:45:50;;;;;;;19.12;5.78;;;;;;;35.75;33.14;101241.67;1773651;79;21741;-75
2021/07/28 10:48:45;;;;;;;8.33;4.90;;;;;;;35.56;32.78;101242.52;1791232;80;21517;-82
2021/07/28 10:51:52;;;;;;;11.08;5.28;;;;;;;35.24;34.06;101232.94;1791515;80;20974;-74
2021/07/28 10:54:19;;;;;;;13.55;5.60;;;;;;;34.98;33.95;101237.14;1791075;80;21030;-73
2021/07/28 10:57:07;;;;;;;10.98;4.45;;;;;;;34.92;34.40;101234.09;1788402;78;21023;-76
2021/07/28 10:59:42;;;;;;;8.05;5.37;;;;;;;35.00;34.02;101230.98;1782321;79;21093;-72
2021/07/28 11:02:11;;;;;;;13.03;5.60;;;;;;;34.82;33.66;101235.81;1782651;79;20958;-73
2021/07/28 11:04:37;;;;;;;13.53;5.47;;;;;;;34.72;34.13;101239.73;1782504;80;21541;-76
2021/07/28 11:07:04;;;;;;;11.60;6.17;;;;;;;34.87;33.46;101235.91;1782221;80;20975;-74
2021/07/28 11:09:31;;;;;;;12.23;6.35;;;;;;;34.96;32.91;101239.81;1782977;80;21019;-74
2021/07/28 11:11:59;;;;;;;10.15;5.15;;;;;;;35.13;33.31;101227.67;1782319;79;21015;-78
2021/07/28 11:14:27;;;;;;;17.65;5.50;;;;;;;35.33;33.32;101223.86;1782459;80;21844;-73
2021/07/28 11:16:54;;;;;;;12.73;5.92;;;;;;;35.38;33.14;101230.16;1782128;80;21021;-74
2021/07/28 11:19:21;;;;;;;13.20;5.62;;;;;;;35.51;32.35;101227.62;1782577;79;21026;-78
2021/07/28 11:21:48;;;;;;;9.98;5.92;;;;;;;35.65;32.62;101220.78;1782209;79;21050;-73
2021/07/28 11:24:17;;;;;;;16.55;7.75;;;;;;;35.55;30.90;101223.33;1781922;79;21006;-82
2021/07/28 11:26:47;;;;;;;20.40;5.85;;;;;;;35.52;31.67;101227.88;1782512;79;21116;-73
2021/07/28 11:29:20;;;;;;;12.90;5.90;;;;;;;35.55;31.09;101226.02;1781907;79;21023;-76
2021/07/28 11:31:48;;;;;;;16.23;5.65;;;;;;;35.64;31.29;101219.17;1782682;80;21272;-78
2021/07/28 11:34:22;;;;;;;13.22;6.25;;;;;;;35.64;30.13;101214.30;1782820;80;21342;-84